Time;durP1;ratioP1;P1;durP2;ratioP2;P2;SDS_P1;SDS_P2;PMS_P1;PMS_P2;Temp;Humidity;BMP_temperature;BMP_pressure;BME280_temperature;BME280_humidity;BME280_pressure;Samples;Min_cycle;Max_cycle;Signal;HPM_P1;HPM_P2
2021/12/21 00:00:42;;;;;;;73.85;29.70;;;-2.60;99.90;;;-2.12;100.00;101676.56;4997540;28;20034;-77
2021/12/21 00:03:08;;;;;;;43.25;22.52;;;-2.50;99.90;;;-2.01;100.00;101677.56;4975781;28;20034;-76
2021/12/21 00:05:38;;;;;;;32.45;17.42;;;-2.50;99.90;;;-1.95;100.00;101684.78;4993639;28;20026;-76
2021/12/21 00:08:11;;;;;;;35.45;18.42;;;-2.40;99.90;;;-1.90;100.00;101675.81;4975729;28;20126;-77
2021/12/21 00:10:43;;;;;;;40.35;18.77;;;-2.30;99.90;;;-1.89;100.00;101675.56;4992447;28;20029;-75
2021/12/21 00:21:23;;;;;;;59.45;17.80;;;-2.20;99.90;;;-1.83;100.00;101663.59;4993196;28;20478;-76
2021/12/21 00:23:55;;;;;;;34.85;17.65;;;-2.20;99.90;;;-1.86;100.00;101666.84;5012677;28;20057;-77
2021/12/21 00:26:22;;;;;;;32.03;16.83;;;-2.20;99.90;;;-1.84;100.00;101664.69;4995015;28;20030;-78
2021/12/21 00:29:01;;;;;;;35.30;15.95;;;-2.30;99.90;;;-1.82;100.00;101664.44;5012546;28;20026;-77
2021/12/21 00:31:36;;;;;;;78.05;19.30;;;-2.20;99.90;;;-1.82;100.00;101659.78;4995055;28;20088;-76
2021/12/21 00:34:06;;;;;;;31.23;15.57;;;-2.20;99.90;;;-1.71;100.00;101661.59;4995044;28;20033;-75
2021/12/21 00:36:38;;;;;;;28.60;14.15;;;-2.20;99.90;;;-1.74;100.00;101653.06;4996940;28;20040;-76
2021/12/21 00:39:08;;;;;;;26.20;13.90;;;-2.20;99.90;;;-1.74;100.00;101662.13;5025797;28;20540;-77
2021/12/21 00:41:35;;;;;;;28.15;14.75;;;-2.20;99.90;;;-1.74;100.00;101662.13;5012486;28;20028;-76
2021/12/21 00:44:01;;;;;;;31.60;13.98;;;-2.10;99.90;;;-1.75;100.00;101660.44;5012547;28;20026;-76
2021/12/21 00:46:30;;;;;;;24.15;13.40;;;-2.20;99.90;;;-1.83;100.00;101651.84;5012633;28;20045;-79
2021/12/21 00:49:12;;;;;;;29.45;14.38;;;-2.30;99.90;;;-1.90;100.00;101651.19;5012355;28;20097;-76
2021/12/21 00:51:38;;;;;;;28.80;14.52;;;-2.30;99.90;;;-1.86;100.00;101653.16;4994626;28;20026;-77
2021/12/21 00:54:07;;;;;;;28.27;13.23;;;-2.30;99.90;;;-1.88;100.00;101655.31;5013902;28;20022;-80
2021/12/21 00:56:33;;;;;;;27.55;15.30;;;-2.30;99.90;;;-1.93;100.00;101655.25;4998253;28;20037;-79
2021/12/21 00:59:04;;;;;;;30.70;13.65;;;-2.40;99.90;;;-1.96;100.00;101646.72;5019323;28;20030;-77
2021/12/21 01:01:31;;;;;;;21.83;13.15;;;-2.40;99.90;;;-2.02;100.00;101659.47;5002962;28;20559;-79
2021/12/21 01:03:58;;;;;;;26.38;13.35;;;-2.40;99.90;;;-2.04;100.00;101650.69;5001612;28;20057;-77
2021/12/21 01:06:57;;;;;;;28.25;13.40;;;-2.50;99.90;;;-2.06;100.00;101652.88;5021331;28;20026;-80
2021/12/21 01:11:53;;;;;;;23.05;11.85;;;-2.50;99.90;;;-2.15;100.00;101648.84;5020813;28;20093;-76
2021/12/21 01:17:15;;;;;;;23.80;13.45;;;-2.60;99.90;;;-2.17;100.00;101634.59;5011911;28;20033;-75
2021/12/21 01:19:46;;;;;;;23.35;12.75;;;-2.60;99.90;;;-2.18;100.00;101636.50;5011176;28;20040;-76
2021/12/21 01:30:46;;;;;;;23.55;11.73;;;-2.60;99.90;;;-2.15;100.00;101635.19;5044954;23;20521;-77
2021/12/21 01:35:58;;;;;;;25.98;12.05;;;-2.60;99.90;;;-2.09;100.00;101634.19;5016972;28;20033;-78
2021/12/21 01:38:44;;;;;;;31.33;13.52;;;-2.60;99.90;;;-2.08;100.00;101627.63;5017151;28;20037;-79
2021/12/21 01:51:58;;;;;;;24.52;12.20;;;-2.50;99.90;;;-2.06;100.00;101621.91;5035742;28;20041;-77
2021/12/21 01:54:24;;;;;;;26.05;13.20;;;-2.50;99.90;;;-2.07;100.00;101621.09;5016460;28;20030;-76
2021/12/21 01:56:50;;;;;;;40.15;15.23;;;-2.50;99.90;;;-2.04;100.00;101626.06;4996533;28;20161;-75
2021/12/21 01:59:22;;;;;;;31.15;14.45;;;-2.50;99.90;;;-2.07;100.00;101620.25;4997256;28;20030;-78
2021/12/21 02:01:47;;;;;;;25.25;13.30;;;-2.50;99.90;;;-2.05;100.00;101629.88;4995557;28;20037;-76
2021/12/21 02:04:17;;;;;;;28.33;14.85;;;-2.50;99.90;;;-2.01;100.00;101616.50;5013235;28;20350;-76
2021/12/21 02:06:44;;;;;;;28.67;14.93;;;-2.50;99.90;;;-2.00;100.00;101618.16;4995492;28;20034;-77
2021/12/21 02:09:10;;;;;;;26.65;13.32;;;-2.50;99.90;;;-2.02;100.00;101617.59;5013513;28;20022;-77
2021/12/21 02:11:37;;;;;;;30.25;14.07;;;-2.50;99.90;;;-2.01;100.00;101621.97;4995805;28;20532;-75
2021/12/21 02:14:06;;;;;;;27.33;13.38;;;-2.50;99.90;;;-2.00;100.00;101616.25;4996572;28;20030;-77
2021/12/21 02:16:45;;;;;;;28.80;13.60;;;-2.50;99.90;;;-1.93;100.00;101624.31;4996137;28;20037;-79
2021/12/21 02:19:37;;;;;;;27.85;12.90;;;-2.40;99.90;;;-1.99;100.00;101617.91;5014267;28;20026;-77
2021/12/21 02:22:13;;;;;;;41.05;14.27;;;-2.40;99.90;;;-1.95;100.00;101620.97;5014007;28;20091;-78
2021/12/21 02:25:00;;;;;;;31.42;14.45;;;-2.40;99.90;;;-1.93;100.00;101619.66;5014490;28;20025;-78
2021/12/21 02:27:41;;;;;;;27.13;12.68;;;-2.40;99.90;;;-1.92;100.00;101624.03;5013602;28;20102;-77
2021/12/21 02:30:14;;;;;;;28.25;13.07;;;-2.40;99.90;;;-1.91;100.00;101624.88;4995627;28;20088;-76
2021/12/21 02:32:46;;;;;;;22.65;11.82;;;-2.40;99.90;;;-1.89;100.00;101626.28;5014256;28;20022;-76
2021/12/21 02:35:12;;;;;;;24.65;12.77;;;-2.40;99.90;;;-1.85;100.00;101632.91;5016943;28;20366;-76
2021/12/21 02:37:41;;;;;;;28.60;12.65;;;-2.30;99.90;;;-1.86;100.00;101622.22;5017363;28;20034;-79
2021/12/21 02:40:11;;;;;;;24.38;13.35;;;-2.30;99.90;;;-1.83;100.00;101621.72;5017519;28;20072;-77
2021/12/21 02:42:38;;;;;;;27.33;12.85;;;-2.30;99.90;;;-1.83;100.00;101622.50;5016068;28;20038;-76
2021/12/21 02:45:06;;;;;;;33.95;13.07;;;-2.30;99.90;;;-1.85;100.00;101621.13;5016521;28;20037;-76
2021/12/21 02:47:32;;;;;;;48.22;14.48;;;-2.30;99.90;;;-1.92;100.00;101624.03;5016366;28;20454;-77
2021/12/21 02:49:59;;;;;;;53.22;15.82;;;-2.40;99.90;;;-1.98;100.00;101621.47;4998963;28;20068;-79
2021/12/21 02:52:25;;;;;;;28.13;13.48;;;-2.40;99.90;;;-1.96;100.00;101627.53;4998609;28;20029;-77
2021/12/21 02:54:51;;;;;;;21.90;12.88;;;-2.40;99.90;;;-1.90;100.00;101621.06;5016650;28;20040;-75
2021/12/21 02:57:20;;;;;;;34.13;13.15;;;-2.30;99.90;;;-1.87;100.00;101626.88;5016517;28;20089;-78
2021/12/21 02:59:46;;;;;;;26.27;13.30;;;-2.40;99.90;;;-1.85;100.00;101616.47;4999647;28;20030;-78
2021/12/21 03:02:11;;;;;;;26.52;12.98;;;-2.30;99.90;;;-1.85;100.00;101619.22;5016422;28;20040;-77
2021/12/21 03:04:43;;;;;;;29.63;13.02;;;-2.30;99.90;;;-1.85;100.00;101621.94;4999099;28;20561;-77
2021/12/21 03:09:55;;;;;;;32.28;14.73;;;-2.30;99.90;;;-1.85;100.00;101612.91;5016673;28;20124;-77
2021/12/21 03:14:52;;;;;;;26.92;13.73;;;-2.30;99.90;;;-1.83;100.00;101610.75;5016329;28;20164;-75
2021/12/21 03:17:23;;;;;;;24.17;13.02;;;-2.30;99.90;;;-1.82;100.00;101615.13;5014794;28;20067;-79
2021/12/21 03:19:49;;;;;;;27.42;12.77;;;-2.30;99.90;;;-1.81;100.00;101612.16;5015448;28;20030;-78
2021/12/21 03:22:15;;;;;;;29.67;13.85;;;-2.30;99.90;;;-1.82;100.00;101610.50;4988499;28;20037;-80
2021/12/21 03:24:43;;;;;;;23.50;12.63;;;-2.30;99.90;;;-1.82;100.00;101609.66;4978874;28;20041;-77
2021/12/21 03:27:13;;;;;;;27.67;13.80;;;-2.30;99.90;;;-1.86;100.00;101608.53;4978709;28;20628;-79
2021/12/21 03:29:40;;;;;;;27.10;13.70;;;-2.30;99.90;;;-1.88;100.00;101610.66;4995641;28;20034;-77
2021/12/21 03:32:12;;;;;;;24.05;12.65;;;-2.30;99.90;;;-1.95;100.00;101610.84;4994843;28;20517;-75
2021/12/21 03:34:38;;;;;;;22.92;12.98;;;-2.40;99.90;;;-1.92;100.00;101604.88;4996289;28;20041;-77
2021/12/21 03:37:11;;;;;;;23.67;12.48;;;-2.40;99.90;;;-1.97;100.00;101602.06;4995991;28;20030;-78
2021/12/21 03:39:42;;;;;;;33.00;14.38;;;-2.40;99.90;;;-1.99;100.00;101603.41;4978073;28;20038;-78
2021/12/21 03:42:12;;;;;;;25.48;13.20;;;-2.40;99.90;;;-1.99;100.00;101597.94;4978181;28;20037;-79
2021/12/21 03:44:41;;;;;;;25.80;13.10;;;-2.50;99.90;;;-2.02;100.00;101601.97;4995661;28;20158;-76
2021/12/21 03:47:10;;;;;;;26.20;13.40;;;-2.50;99.90;;;-2.06;100.00;101608.22;4977852;28;20037;-76
2021/12/21 03:52:19;;;;;;;28.13;13.35;;;-2.50;99.90;;;-2.06;100.00;101598.13;4995086;28;20165;-74
2021/12/21 03:54:55;;;;;;;29.77;13.20;;;-2.50;99.90;;;-2.08;100.00;101592.03;4977614;28;20026;-76
2021/12/21 03:57:21;;;;;;;62.17;14.77;;;-2.50;99.90;;;-2.20;100.00;101591.31;4995165;28;20037;-76
2021/12/21 03:59:49;;;;;;;27.55;13.15;;;-2.60;99.90;;;-2.15;100.00;101592.22;4995047;28;20037;-77
2021/12/21 04:02:19;;;;;;;22.50;12.52;;;-2.50;99.90;;;-2.10;100.00;101596.13;4994165;28;20027;-77
2021/12/21 04:04:48;;;;;;;20.30;11.50;;;-2.50;99.90;;;-2.10;100.00;101594.22;4994383;28;20401;-76
2021/12/21 04:07:21;;;;;;;23.38;11.75;;;-2.50;99.90;;;-2.13;100.00;101603.75;4993729;28;20477;-79
2021/12/21 04:09:50;;;;;;;26.85;13.13;;;-2.60;99.90;;;-2.16;100.00;101603.44;4976362;28;20035;-78
2021/12/21 04:12:17;;;;;;;47.47;20.02;;;-2.60;99.90;;;-2.16;100.00;101606.16;5002939;28;20022;-78
2021/12/21 04:14:46;;;;;;;252.00;91.60;;;-2.60;99.90;;;-2.14;100.00;101599.34;4998321;28;20018;-78
2021/12/21 04:17:21;;;;;;;140.98;54.90;;;-2.60;99.90;;;-2.20;100.00;101596.78;4996727;28;20060;-77
2021/12/21 04:19:49;;;;;;;243.02;85.93;;;-2.70;99.90;;;-2.29;100.00;101601.03;5004673;28;20038;-77
2021/12/21 04:22:16;;;;;;;186.25;56.42;;;-2.70;99.90;;;-2.28;100.00;101597.22;5011220;28;20040;-76
2021/12/21 04:24:42;;;;;;;39.03;18.42;;;-2.70;99.90;;;-2.33;100.00;101599.88;5016936;28;20044;-77
2021/12/21 04:27:08;;;;;;;92.88;36.47;;;-2.80;99.90;;;-2.41;100.00;101595.63;5002159;28;20091;-76
2021/12/21 04:29:35;;;;;;;41.28;18.75;;;-2.90;99.90;;;-2.45;100.00;101599.97;5024941;28;20370;-75
2021/12/21 04:32:05;;;;;;;37.13;17.35;;;-2.90;99.90;;;-2.51;100.00;101595.50;5016931;28;20086;-77
2021/12/21 04:34:31;;;;;;;23.95;13.18;;;-2.90;99.90;;;-2.56;100.00;101597.31;5014541;28;20396;-75
2021/12/21 04:37:07;;;;;;;21.73;12.50;;;-3.00;99.90;;;-2.64;100.00;101595.81;4997050;28;20085;-77
2021/12/21 04:40:00;;;;;;;27.70;13.80;;;-3.00;99.90;;;-2.68;100.00;101595.50;5014830;28;20090;-75
2021/12/21 04:42:22;;;;;;;48.13;18.75;;;-3.10;99.90;;;-2.72;100.00;101590.75;5013290;28;20037;-77
2021/12/21 04:44:48;;;;;;;33.10;16.65;;;-3.10;99.90;;;-2.76;100.00;101595.06;4996495;28;20026;-75
2021/12/21 04:47:14;;;;;;;40.63;17.13;;;-3.20;99.90;;;-2.79;100.00;101588.19;4999573;28;20093;-77
2021/12/21 04:49:40;;;;;;;37.25;16.13;;;-3.20;99.90;;;-2.77;100.00;101591.50;5009221;28;20026;-78
2021/12/21 04:52:07;;;;;;;38.13;15.73;;;-3.20;99.90;;;-2.80;100.00;101580.22;5019267;28;20515;-78
2021/12/21 04:54:32;;;;;;;30.00;14.30;;;-3.10;99.90;;;-2.77;100.00;101572.38;5013690;28;20431;-75
2021/12/21 04:56:58;;;;;;;303.50;94.80;;;-3.10;99.90;;;-2.66;100.00;101576.09;4999186;28;20117;-77
2021/12/21 04:59:24;;;;;;;175.02;60.03;;;-3.10;99.90;;;-2.70;100.00;101573.00;5007245;28;20034;-78
2021/12/21 05:01:54;;;;;;;89.90;33.65;;;-3.10;99.90;;;-2.78;100.00;101561.66;5019123;28;20472;-76
2021/12/21 05:04:20;;;;;;;77.65;30.70;;;-3.20;99.90;;;-2.87;100.00;101564.00;5013499;28;20028;-77
2021/12/21 05:06:46;;;;;;;43.80;19.08;;;-3.20;99.90;;;-2.96;100.00;101568.22;5014992;28;20034;-79
2021/12/21 05:09:23;;;;;;;30.02;13.55;;;-3.30;99.90;;;-3.06;100.00;101559.81;4999551;28;20068;-79
2021/12/21 05:11:50;;;;;;;22.38;10.75;;;-3.40;99.90;;;-3.16;100.00;101576.03;5016563;28;20030;-78
2021/12/21 05:14:16;;;;;;;19.50;10.60;;;-3.50;99.90;;;-3.26;100.00;101565.75;4995663;28;20396;-76
2021/12/21 05:16:46;;;;;;;23.65;11.05;;;-3.60;99.90;;;-3.34;100.00;101578.97;5013699;28;20440;-77
2021/12/21 05:19:12;;;;;;;22.27;11.50;;;-3.70;99.90;;;-3.45;100.00;101567.00;5012232;28;20036;-78
2021/12/21 05:21:38;;;;;;;21.75;10.20;;;-3.80;99.90;;;-3.49;100.00;101573.19;4991790;28;20026;-78
2021/12/21 05:24:04;;;;;;;23.40;11.02;;;-3.80;99.90;;;-3.49;100.00;101581.38;4994297;28;20041;-76
2021/12/21 05:26:33;;;;;;;36.63;14.85;;;-3.90;99.90;;;-3.51;100.00;101573.44;4978012;28;20116;-78
2021/12/21 05:28:59;;;;;;;24.02;11.10;;;-3.90;99.90;;;-3.50;100.00;101580.56;4995013;28;20030;-77
2021/12/21 05:31:25;;;;;;;22.30;11.32;;;-3.90;99.90;;;-3.53;100.00;101577.50;4994024;28;20525;-78
2021/12/21 05:33:52;;;;;;;22.38;11.10;;;-3.90;99.90;;;-3.61;100.00;101581.44;4976402;28;20023;-77
2021/12/21 05:36:20;;;;;;;22.45;11.48;;;-3.90;99.90;;;-3.68;100.00;101571.72;4994429;28;20034;-77
2021/12/21 05:38:57;;;;;;;21.40;10.48;;;-4.00;99.90;;;-3.72;100.00;101578.75;4994211;28;20385;-76
2021/12/21 05:41:30;;;;;;;22.95;11.13;;;-4.10;99.90;;;-3.79;100.00;101570.69;4976895;28;20029;-77
2021/12/21 05:43:56;;;;;;;26.75;12.13;;;-4.10;99.90;;;-3.82;100.00;101574.72;4994058;28;20400;-77
2021/12/21 05:46:23;;;;;;;19.05;10.23;;;-4.20;99.90;;;-3.87;100.00;101579.25;4977078;28;20126;-77
2021/12/21 05:48:55;;;;;;;22.33;11.18;;;-4.20;99.90;;;-3.86;100.00;101584.47;5000502;28;20030;-75
2021/12/21 05:51:21;;;;;;;22.60;12.00;;;-4.20;99.90;;;-3.85;100.00;101586.09;5015024;28;20086;-76
2021/12/21 05:53:53;;;;;;;26.45;12.98;;;-4.20;99.90;;;-3.83;100.00;101586.72;5014179;28;20069;-77
2021/12/21 05:56:18;;;;;;;36.00;17.75;;;-4.20;99.90;;;-3.73;100.00;101586.09;4984589;28;20064;-76
2021/12/21 05:58:45;;;;;;;37.10;18.92;;;-4.10;99.90;;;-3.55;100.00;101583.19;5000477;28;20034;-77
2021/12/21 06:01:17;;;;;;;34.38;16.45;;;-3.90;99.90;;;-3.38;100.00;101581.38;4993585;28;20026;-77
2021/12/21 06:03:43;;;;;;;27.83;14.32;;;-3.80;99.90;;;-3.31;100.00;101583.94;4976275;28;20033;-78
2021/12/21 06:06:14;;;;;;;31.73;16.27;;;-3.70;99.90;;;-3.19;100.00;101592.91;4993856;28;20477;-77
2021/12/21 06:08:48;;;;;;;40.47;15.57;;;-3.60;99.90;;;-3.11;100.00;101595.25;4981191;28;20041;-78
2021/12/21 06:11:15;;;;;;;30.73;14.95;;;-3.50;99.90;;;-3.07;100.00;101590.13;4997877;28;20026;-75
2021/12/21 06:22:44;;;;;;;30.77;16.33;;;-3.40;99.90;;;-3.00;100.00;101591.63;4998573;28;20057;-77
2021/12/21 06:25:24;;;;;;;32.38;15.82;;;-3.40;99.90;;;-3.09;100.00;101598.59;5018169;28;20417;-78
2021/12/21 06:27:48;;;;;;;31.90;14.10;;;-3.40;99.90;;;-3.05;100.00;101599.72;5017075;28;20033;-78
2021/12/21 06:30:15;;;;;;;27.98;13.80;;;-3.40;99.90;;;-3.05;100.00;101598.94;5015809;28;20037;-77
2021/12/21 06:32:44;;;;;;;27.73;13.98;;;-3.40;99.90;;;-3.11;100.00;101602.63;5017514;28;20045;-77
2021/12/21 06:35:12;;;;;;;22.90;11.95;;;-3.40;99.90;;;-3.15;100.00;101601.47;4999222;28;20510;-78
2021/12/21 06:37:38;;;;;;;25.13;13.40;;;-3.50;99.90;;;-3.23;100.00;101597.22;5016731;28;20388;-77
2021/12/21 06:40:05;;;;;;;21.75;11.85;;;-3.60;99.90;;;-3.32;100.00;101587.75;5017483;28;20489;-77
2021/12/21 06:42:31;;;;;;;24.67;11.38;;;-3.60;99.90;;;-3.41;100.00;101600.13;5017690;28;20041;-76
2021/12/21 06:45:00;;;;;;;22.45;11.57;;;-3.70;99.90;;;-3.50;100.00;101596.13;5017381;28;20434;-77
2021/12/21 06:52:59;;;;;;;27.10;12.48;;;-3.90;99.90;;;-3.72;100.00;101595.94;5017200;28;20044;-77
2021/12/21 06:55:28;;;;;;;23.33;11.88;;;-4.00;99.90;;;-3.78;100.00;101595.00;5026785;28;20121;-78
2021/12/21 06:57:54;;;;;;;26.27;11.95;;;-4.10;99.90;;;-3.83;100.00;101602.25;5009515;28;20064;-76
2021/12/21 07:00:20;;;;;;;23.13;12.13;;;-4.10;99.90;;;-3.88;100.00;101600.25;5018593;28;20342;-77
2021/12/21 07:02:47;;;;;;;23.77;12.57;;;-4.20;99.90;;;-3.89;100.00;101600.50;5022735;28;20056;-78
2021/12/21 07:05:15;;;;;;;25.08;12.57;;;-4.20;99.90;;;-3.90;100.00;101605.13;5029970;28;20097;-78
2021/12/21 07:07:44;;;;;;;22.55;11.45;;;-4.20;99.90;;;-3.90;100.00;101601.56;5019129;28;20037;-77
2021/12/21 07:10:20;;;;;;;21.85;11.38;;;-4.20;99.90;;;-3.93;100.00;101604.75;5019272;28;20022;-78
2021/12/21 07:20:31;;;;;;;30.85;14.50;;;-4.30;99.90;;;-3.94;100.00;101608.56;5017046;28;20057;-77
2021/12/21 07:22:57;;;;;;;25.83;14.07;;;-4.30;99.90;;;-3.90;100.00;101602.38;5001430;28;20041;-77
2021/12/21 07:25:25;;;;;;;25.95;11.88;;;-4.20;99.90;;;-3.96;100.00;101602.50;4979194;28;20034;-76
2021/12/21 07:27:53;;;;;;;25.52;12.65;;;-4.30;99.90;;;-4.01;100.00;101610.56;4996863;28;20029;-76
2021/12/21 07:30:23;;;;;;;24.75;11.95;;;-4.30;99.90;;;-4.01;100.00;101613.31;5004702;23;20155;-81
2021/12/21 07:32:49;;;;;;;23.63;12.23;;;-4.30;99.90;;;-4.05;100.00;101612.97;5013070;28;20038;-81
2021/12/21 07:35:16;;;;;;;20.08;12.15;;;-4.40;99.90;;;-4.07;100.00;101606.06;4980507;28;20493;-83
2021/12/21 07:37:43;;;;;;;21.33;11.43;;;-4.40;99.90;;;-4.09;100.00;101598.13;4997392;28;20022;-81
2021/12/21 07:40:13;;;;;;;18.52;9.98;;;-4.40;99.90;;;-4.15;100.00;101592.81;4999182;28;20031;-83
2021/12/21 07:42:39;;;;;;;21.92;10.57;;;-4.50;99.90;;;-4.18;100.00;101601.47;4981514;28;20027;-83
2021/12/21 07:45:09;;;;;;;24.02;12.23;;;-4.50;99.90;;;-4.16;100.00;101604.78;4980428;28;20026;-81
2021/12/21 07:47:35;;;;;;;24.08;11.13;;;-4.50;99.90;;;-4.17;100.00;101609.41;4985890;28;20041;-81
2021/12/21 07:50:06;;;;;;;20.17;10.80;;;-4.50;99.90;;;-4.16;100.00;101613.78;4983603;28;20026;-83
2021/12/21 07:52:32;;;;;;;18.67;11.20;;;-4.50;99.90;;;-4.14;100.00;101616.31;4978657;28;20054;-82
2021/12/21 07:54:58;;;;;;;20.27;11.10;;;-4.50;99.90;;;-4.11;100.00;101611.16;4976458;28;20458;-82
2021/12/21 07:57:37;;;;;;;19.15;11.02;;;-4.50;99.90;;;-4.05;100.00;101617.59;4978215;28;20039;-82
2021/12/21 08:00:11;;;;;;;20.63;11.07;;;-4.40;99.90;;;-4.02;100.00;101615.22;4977444;28;20043;-82
2021/12/21 08:02:39;;;;;;;17.13;10.20;;;-4.40;99.90;;;-3.94;100.00;101611.28;4977995;28;20035;-82
2021/12/21 08:05:10;;;;;;;25.23;11.80;;;-4.30;99.90;;;-3.76;100.00;101616.63;4978984;28;20466;-82
2021/12/21 08:07:47;;;;;;;21.48;10.75;;;-4.20;99.90;;;-3.77;100.00;101618.50;4978041;28;20026;-82
2021/12/21 08:10:20;;;;;;;20.98;11.60;;;-4.20;99.90;;;-3.71;100.00;101611.25;4961962;28;20038;-81
2021/12/21 08:12:46;;;;;;;27.83;15.25;;;-4.10;99.90;;;-3.52;100.00;101620.09;4979874;28;20019;-82
2021/12/21 08:15:24;;;;;;;51.20;22.67;;;-3.90;99.90;;;-3.21;100.00;101622.38;4978308;28;20026;-81
2021/12/21 08:17:50;;;;;;;46.75;19.08;;;-3.80;99.90;;;-3.08;100.00;101624.00;4977089;28;20549;-83
2021/12/21 08:20:17;;;;;;;43.55;18.27;;;-3.60;99.90;;;-2.98;100.00;101619.53;4980980;28;20366;-81
2021/12/21 08:22:46;;;;;;;37.40;16.13;;;-3.50;99.90;;;-2.84;100.00;101629.13;4980826;28;20081;-82
2021/12/21 08:25:15;;;;;;;31.15;15.48;;;-3.40;99.90;;;-2.67;100.00;101618.19;4981500;28;20034;-81
2021/12/21 08:27:46;;;;;;;31.35;15.55;;;-3.20;99.90;;;-2.49;100.00;101620.69;4979749;28;20050;-82
2021/12/21 08:30:12;;;;;;;23.02;12.55;;;-2.90;99.90;;;-2.32;100.00;101624.25;4980309;28;20034;-80
2021/12/21 08:32:38;;;;;;;27.90;13.05;;;-2.80;99.90;;;-2.22;100.00;101620.84;4993244;28;20054;-79
2021/12/21 08:35:08;;;;;;;23.15;12.75;;;-2.60;99.90;;;-2.02;100.00;101623.09;4995035;28;20058;-81
2021/12/21 08:37:48;;;;;;;23.33;12.57;;;-2.50;99.90;;;-1.86;100.00;101619.47;4966599;28;20046;-82
2021/12/21 08:40:15;;;;;;;29.77;12.52;;;-2.40;99.90;;;-1.63;100.00;101617.31;4962141;28;20066;-82
2021/12/21 08:42:45;;;;;;;23.02;12.48;;;-2.30;99.90;;;-1.43;100.00;101624.16;4979211;28;20065;-81
2021/12/21 08:45:11;;;;;;;19.65;11.40;;;-2.10;99.90;;;-1.22;100.00;101618.66;4977413;28;20026;-83
2021/12/21 08:47:38;;;;;;;20.85;11.80;;;-2.00;99.90;;;-1.04;100.00;101617.50;4978058;28;20035;-81
2021/12/21 08:50:10;;;;;;;23.60;11.77;;;-1.80;99.90;;;-1.02;100.00;101623.53;4976191;28;20038;-82
2021/12/21 08:52:36;;;;;;;20.40;11.48;;;-1.70;99.90;;;-0.74;100.00;101625.22;4975833;28;20037;-80
2021/12/21 08:55:07;;;;;;;19.73;11.57;;;-1.50;99.90;;;-0.48;100.00;101624.34;4975268;28;20027;-81
2021/12/21 08:57:34;;;;;;;19.05;9.93;;;-1.40;99.90;;;-0.29;100.00;101622.84;4959933;28;20046;-84
2021/12/21 09:00:10;;;;;;;17.85;10.02;;;-1.20;99.90;;;-0.07;100.00;101626.34;4976647;28;20042;-84
2021/12/21 09:02:37;;;;;;;19.05;11.57;;;-1.00;99.90;;;0.01;100.00;101622.25;4960755;28;20391;-84
2021/12/21 09:05:18;;;;;;;19.77;10.25;;;-0.90;99.90;;;0.15;100.00;101628.13;4978804;28;20038;-84
2021/12/21 09:07:48;;;;;;;17.05;10.75;;;-0.70;99.90;;;0.27;100.00;101628.72;4989719;28;20027;-79
2021/12/21 09:10:19;;;;;;;14.52;10.02;;;-0.60;99.90;;;0.43;100.00;101636.78;4996650;28;20100;-78
2021/12/21 09:12:49;;;;;;;16.60;9.05;;;-0.50;99.90;;;0.59;100.00;101636.84;4993614;28;20034;-80
2021/12/21 09:15:21;;;;;;;15.88;9.50;;;-0.40;99.90;;;0.80;100.00;101644.13;4969498;28;20476;-81
2021/12/21 09:17:48;;;;;;;15.82;8.70;;;-0.20;99.90;;;0.92;100.00;101636.47;4968847;28;20117;-82
2021/12/21 09:20:21;;;;;;;19.80;10.48;;;-0.10;99.90;;;0.99;100.00;101635.13;4984570;28;20070;-83
2021/12/21 09:22:50;;;;;;;17.13;9.32;;;0.00;99.90;;;1.01;100.00;101641.16;4985015;28;20071;-82
2021/12/21 09:25:19;;;;;;;22.52;11.20;;;0.00;99.90;;;1.05;100.00;101642.28;4984385;28;20098;-84
2021/12/21 09:27:46;;;;;;;17.38;9.50;;;0.10;99.90;;;1.20;100.00;101637.91;4985979;28;20557;-84
2021/12/21 09:30:17;;;;;;;17.23;9.70;;;0.20;99.90;;;1.24;100.00;101636.25;4980159;28;20447;-83
2021/12/21 09:32:43;;;;;;;17.38;8.98;;;0.30;99.90;;;1.47;100.00;101633.84;4962969;28;20478;-84
2021/12/21 09:35:10;;;;;;;12.52;7.80;;;0.40;99.90;;;1.58;99.93;101618.97;4979534;28;20030;-83
2021/12/21 09:37:36;;;;;;;14.43;8.07;;;0.60;99.90;;;1.73;98.98;101639.34;4977978;28;20383;-83
2021/12/21 09:40:21;;;;;;;15.13;8.73;;;0.70;99.90;;;1.87;98.34;101632.16;4961311;28;20066;-81
2021/12/21 09:42:48;;;;;;;17.20;8.82;;;0.80;99.90;;;1.96;97.29;101636.84;4964502;28;20037;-81
2021/12/21 09:45:16;;;;;;;18.15;9.00;;;0.90;99.90;;;2.02;96.55;101634.94;4966054;28;20065;-82
2021/12/21 09:47:44;;;;;;;16.02;8.48;;;1.00;99.90;;;2.07;96.60;101638.50;4982552;28;20107;-83
2021/12/21 09:50:15;;;;;;;17.33;9.52;;;1.00;99.90;;;2.08;95.43;101633.81;4982603;28;20046;-83
2021/12/21 09:52:42;;;;;;;15.90;9.45;;;1.00;99.90;;;2.00;94.50;101634.34;4983389;28;20497;-83
2021/12/21 09:55:15;;;;;;;19.13;9.45;;;1.00;99.90;;;2.07;95.46;101634.91;4983262;28;20033;-83
2021/12/21 09:57:42;;;;;;;19.25;9.50;;;1.10;99.90;;;2.20;95.25;101633.50;4966468;28;20033;-82
2021/12/21 10:00:17;;;;;;;13.73;9.15;;;1.20;99.90;;;2.29;94.49;101626.31;4983619;28;20078;-81
2021/12/21 10:02:43;;;;;;;16.17;8.93;;;1.20;99.90;;;2.20;92.23;101628.81;4983528;28;20090;-82
2021/12/21 10:05:16;;;;;;;16.35;8.85;;;1.20;99.90;;;2.16;92.42;101633.22;4982923;28;20038;-83
2021/12/21 10:07:42;;;;;;;22.65;10.48;;;1.10;99.90;;;2.07;92.07;101632.97;4982928;28;20035;-81
2021/12/21 10:10:17;;;;;;;14.95;8.77;;;1.10;99.90;;;2.01;93.29;101627.75;4981623;28;20034;-81
2021/12/21 10:12:48;;;;;;;19.00;8.60;;;1.00;99.90;;;1.98;94.10;101626.38;4982591;28;20019;-81
2021/12/21 10:15:25;;;;;;;18.73;9.65;;;0.90;99.90;;;2.05;93.81;101628.88;4980967;28;20058;-81
2021/12/21 10:17:59;;;;;;;15.43;9.63;;;1.00;99.90;;;2.06;92.99;101630.50;4981600;28;20081;-81
2021/12/21 10:20:43;;;;;;;18.05;9.30;;;1.10;99.90;;;2.27;93.69;101625.78;4963550;28;20035;-83
2021/12/21 10:23:17;;;;;;;19.38;9.65;;;1.20;99.90;;;2.40;92.99;101625.19;4963680;28;20027;-81
2021/12/21 10:25:55;;;;;;;16.90;10.20;;;1.30;99.90;;;2.54;93.59;101621.56;4961161;29;20065;-82
2021/12/21 10:28:51;;;;;;;19.65;11.07;;;1.50;99.90;;;2.70;94.12;101619.56;4962020;29;20042;-80
2021/12/21 10:31:36;;;;;;;;;;;1.60;99.90;;;2.88;93.29;101612.59;4963987;28;20039;-83
2021/12/21 10:34:10;;;;;;;16.00;9.60;;;1.70;99.90;;;2.83;92.07;101613.44;4961920;29;19910;-83
2021/12/21 10:36:51;;;;;;;20.70;10.45;;;1.70;99.90;;;2.90;92.08;101604.84;4944081;29;20038;-82
2021/12/21 10:39:28;;;;;;;21.55;10.18;;;1.80;99.90;;;2.99;91.44;101603.13;4959796;29;20038;-81
2021/12/21 10:42:00;;;;;;;17.85;10.60;;;1.80;99.90;;;2.85;90.31;101610.41;4942636;29;20086;-80
2021/12/21 10:44:28;;;;;;;17.42;10.25;;;1.80;99.90;;;2.72;91.53;101594.47;4942058;29;20403;-82
2021/12/21 10:46:56;;;;;;;19.40;10.95;;;1.80;99.90;;;2.80;90.97;101593.84;4941667;29;20035;-83
2021/12/21 10:49:27;;;;;;;20.85;11.60;;;1.80;99.90;;;2.94;90.92;101586.63;4959319;29;20019;-82
2021/12/21 10:52:09;;;;;;;19.23;11.13;;;1.90;99.90;;;3.02;90.86;101597.88;4958819;28;20114;-81
2021/12/21 10:54:45;;;;;;;20.13;11.80;;;1.90;99.90;;;3.06;90.90;101585.16;4940575;29;20038;-81
2021/12/21 10:57:16;;;;;;;19.38;10.75;;;2.00;99.90;;;3.18;90.58;101584.81;4941307;29;20467;-82
2021/12/21 10:59:49;;;;;;;17.95;10.13;;;2.10;99.90;;;3.07;90.68;101574.94;4958583;29;20041;-81
2021/12/21 11:02:26;;;;;;;18.48;9.73;;;2.10;99.90;;;3.14;89.95;101570.78;4941644;29;20101;-82
2021/12/21 11:05:18;;;;;;;21.83;10.48;;;2.10;99.90;;;3.19;89.87;101564.38;4958621;29;20107;-82
2021/12/21 11:07:53;;;;;;;18.65;10.95;;;2.20;99.90;;;3.28;89.91;101559.06;4959039;29;20023;-83
2021/12/21 11:10:36;;;;;;;19.05;9.70;;;2.20;99.90;;;3.29;88.96;101567.06;4941382;28;20020;-82
2021/12/21 11:13:13;;;;;;;14.95;9.50;;;2.20;99.90;;;3.21;88.76;101564.94;4942235;29;20066;-83
2021/12/21 11:15:53;;;;;;;18.88;9.60;;;2.20;99.90;;;3.12;89.10;101567.47;4959465;28;20059;-84